sensor_id;sensor_type;location;lat;lon;timestamp;temperature;humidity
56538;DHT22;42435;53.292;6.000;2023-07-13T00:00:38;18.60;74.20
56538;DHT22;42435;53.292;6.000;2023-07-13T00:03:04;18.60;74.10
56538;DHT22;42435;53.292;6.000;2023-07-13T00:05:30;18.70;74.00
56538;DHT22;42435;53.292;6.000;2023-07-13T00:07:56;18.60;73.90
56538;DHT22;42435;53.292;6.000;2023-07-13T00:10:22;18.60;73.80
56538;DHT22;42435;53.292;6.000;2023-07-13T00:12:48;18.60;73.60
56538;DHT22;42435;53.292;6.000;2023-07-13T00:15:25;18.60;73.40
56538;DHT22;42435;53.292;6.000;2023-07-13T00:17:55;18.50;73.30
56538;DHT22;42435;53.292;6.000;2023-07-13T00:20:23;18.50;73.20
56538;DHT22;42435;53.292;6.000;2023-07-13T00:22:51;18.50;73.00
56538;DHT22;42435;53.292;6.000;2023-07-13T00:25:20;18.50;72.80
56538;DHT22;42435;53.292;6.000;2023-07-13T00:27:47;18.40;72.70
56538;DHT22;42435;53.292;6.000;2023-07-13T00:30:14;18.40;72.70
56538;DHT22;42435;53.292;6.000;2023-07-13T00:32:40;18.40;72.60
56538;DHT22;42435;53.292;6.000;2023-07-13T00:35:07;18.40;72.50
56538;DHT22;42435;53.292;6.000;2023-07-13T00:37:33;18.40;72.50
56538;DHT22;42435;53.292;6.000;2023-07-13T00:40:03;18.40;72.50
56538;DHT22;42435;53.292;6.000;2023-07-13T00:42:29;18.30;72.40
56538;DHT22;42435;53.292;6.000;2023-07-13T00:47:28;18.30;72.30
56538;DHT22;42435;53.292;6.000;2023-07-13T00:49:53;18.30;72.20
56538;DHT22;42435;53.292;6.000;2023-07-13T00:52:19;18.30;72.20
56538;DHT22;42435;53.292;6.000;2023-07-13T00:54:46;18.30;72.30
56538;DHT22;42435;53.292;6.000;2023-07-13T00:57:15;18.30;72.40
56538;DHT22;42435;53.292;6.000;2023-07-13T00:59:43;18.30;72.60
56538;DHT22;42435;53.292;6.000;2023-07-13T01:02:10;18.20;72.70
56538;DHT22;42435;53.292;6.000;2023-07-13T01:04:37;18.30;72.80
56538;DHT22;42435;53.292;6.000;2023-07-13T01:07:06;18.20;72.90
56538;DHT22;42435;53.292;6.000;2023-07-13T01:09:32;18.30;73.00
56538;DHT22;42435;53.292;6.000;2023-07-13T01:11:58;18.30;72.90
56538;DHT22;42435;53.292;6.000;2023-07-13T01:14:25;18.20;72.90
56538;DHT22;42435;53.292;6.000;2023-07-13T01:16:51;18.30;72.80
56538;DHT22;42435;53.292;6.000;2023-07-13T01:19:36;18.30;72.80
56538;DHT22;42435;53.292;6.000;2023-07-13T01:22:14;18.30;72.60
56538;DHT22;42435;53.292;6.000;2023-07-13T01:24:43;18.30;72.40
56538;DHT22;42435;53.292;6.000;2023-07-13T01:27:12;18.20;72.20
56538;DHT22;42435;53.292;6.000;2023-07-13T01:29:39;18.20;72.10
56538;DHT22;42435;53.292;6.000;2023-07-13T01:32:16;18.20;71.90
56538;DHT22;42435;53.292;6.000;2023-07-13T01:34:43;18.20;71.90
56538;DHT22;42435;53.292;6.000;2023-07-13T01:37:11;18.20;71.80
56538;DHT22;42435;53.292;6.000;2023-07-13T01:39:37;18.20;71.90
56538;DHT22;42435;53.292;6.000;2023-07-13T01:42:03;18.10;71.80
56538;DHT22;42435;53.292;6.000;2023-07-13T01:44:29;18.10;71.70
56538;DHT22;42435;53.292;6.000;2023-07-13T01:46:55;18.10;71.70
56538;DHT22;42435;53.292;6.000;2023-07-13T01:49:21;18.00;71.80
56538;DHT22;42435;53.292;6.000;2023-07-13T01:51:47;18.00;71.80
56538;DHT22;42435;53.292;6.000;2023-07-13T01:54:13;18.00;71.90
56538;DHT22;42435;53.292;6.000;2023-07-13T01:56:38;18.00;71.90
56538;DHT22;42435;53.292;6.000;2023-07-13T01:59:05;17.90;72.00
56538;DHT22;42435;53.292;6.000;2023-07-13T02:01:31;17.90;72.10
56538;DHT22;42435;53.292;6.000;2023-07-13T02:03:56;17.90;72.20
56538;DHT22;42435;53.292;6.000;2023-07-13T02:06:22;17.90;72.30
56538;DHT22;42435;53.292;6.000;2023-07-13T02:08:48;17.90;72.30
56538;DHT22;42435;53.292;6.000;2023-07-13T02:11:14;17.90;72.50
56538;DHT22;42435;53.292;6.000;2023-07-13T02:13:40;17.90;72.60
56538;DHT22;42435;53.292;6.000;2023-07-13T02:16:06;17.90;72.70
56538;DHT22;42435;53.292;6.000;2023-07-13T02:18:32;17.90;72.80
56538;DHT22;42435;53.292;6.000;2023-07-13T02:20:58;17.90;72.90
56538;DHT22;42435;53.292;6.000;2023-07-13T02:23:24;17.90;73.10
56538;DHT22;42435;53.292;6.000;2023-07-13T02:25:53;17.80;73.30
56538;DHT22;42435;53.292;6.000;2023-07-13T02:28:19;17.90;73.50
56538;DHT22;42435;53.292;6.000;2023-07-13T02:30:45;17.80;73.70
56538;DHT22;42435;53.292;6.000;2023-07-13T02:33:11;17.90;73.90
56538;DHT22;42435;53.292;6.000;2023-07-13T02:38:12;17.90;74.30
56538;DHT22;42435;53.292;6.000;2023-07-13T02:40:38;17.90;74.40
56538;DHT22;42435;53.292;6.000;2023-07-13T02:43:04;17.80;74.50
56538;DHT22;42435;53.292;6.000;2023-07-13T02:45:29;17.90;74.70
56538;DHT22;42435;53.292;6.000;2023-07-13T02:47:55;17.80;74.80
56538;DHT22;42435;53.292;6.000;2023-07-13T02:50:21;17.80;74.90
56538;DHT22;42435;53.292;6.000;2023-07-13T02:52:47;17.80;75.00
56538;DHT22;42435;53.292;6.000;2023-07-13T02:55:12;17.70;75.00
56538;DHT22;42435;53.292;6.000;2023-07-13T02:57:38;17.70;75.10
56538;DHT22;42435;53.292;6.000;2023-07-13T03:00:05;17.70;75.20
56538;DHT22;42435;53.292;6.000;2023-07-13T03:02:32;17.60;75.40
56538;DHT22;42435;53.292;6.000;2023-07-13T03:04:58;17.60;75.60
56538;DHT22;42435;53.292;6.000;2023-07-13T03:07:24;17.60;75.70
56538;DHT22;42435;53.292;6.000;2023-07-13T03:09:58;17.60;75.90
56538;DHT22;42435;53.292;6.000;2023-07-13T03:12:25;17.60;76.20
56538;DHT22;42435;53.292;6.000;2023-07-13T03:14:51;17.60;76.20
56538;DHT22;42435;53.292;6.000;2023-07-13T03:17:17;17.50;76.40
56538;DHT22;42435;53.292;6.000;2023-07-13T03:19:43;17.50;76.50
56538;DHT22;42435;53.292;6.000;2023-07-13T03:22:09;17.50;76.60
56538;DHT22;42435;53.292;6.000;2023-07-13T03:24:35;17.50;76.70
56538;DHT22;42435;53.292;6.000;2023-07-13T03:27:04;17.50;76.90
56538;DHT22;42435;53.292;6.000;2023-07-13T03:29:33;17.50;77.00
56538;DHT22;42435;53.292;6.000;2023-07-13T03:31:58;17.50;77.20
56538;DHT22;42435;53.292;6.000;2023-07-13T03:34:24;17.50;77.30
56538;DHT22;42435;53.292;6.000;2023-07-13T03:36:50;17.40;77.40
56538;DHT22;42435;53.292;6.000;2023-07-13T03:39:16;17.50;77.50
56538;DHT22;42435;53.292;6.000;2023-07-13T03:41:51;17.40;77.60
56538;DHT22;42435;53.292;6.000;2023-07-13T03:44:17;17.40;77.70
56538;DHT22;42435;53.292;6.000;2023-07-13T03:46:43;17.40;77.80
56538;DHT22;42435;53.292;6.000;2023-07-13T03:49:09;17.40;78.00
56538;DHT22;42435;53.292;6.000;2023-07-13T03:51:35;17.40;78.10
56538;DHT22;42435;53.292;6.000;2023-07-13T03:54:01;17.40;78.20
56538;DHT22;42435;53.292;6.000;2023-07-13T03:56:28;17.30;78.30
56538;DHT22;42435;53.292;6.000;2023-07-13T03:58:55;17.30;78.20
56538;DHT22;42435;53.292;6.000;2023-07-13T04:01:23;17.30;78.30
56538;DHT22;42435;53.292;6.000;2023-07-13T04:03:49;17.30;78.40
56538;DHT22;42435;53.292;6.000;2023-07-13T04:06:18;17.30;78.50
56538;DHT22;42435;53.292;6.000;2023-07-13T04:08:53;17.30;78.70
56538;DHT22;42435;53.292;6.000;2023-07-13T04:11:21;17.30;78.80
56538;DHT22;42435;53.292;6.000;2023-07-13T04:13:48;17.30;78.80
56538;DHT22;42435;53.292;6.000;2023-07-13T04:16:16;17.30;78.80
56538;DHT22;42435;53.292;6.000;2023-07-13T04:18:43;17.30;78.90
56538;DHT22;42435;53.292;6.000;2023-07-13T04:21:09;17.30;79.00
56538;DHT22;42435;53.292;6.000;2023-07-13T04:23:36;17.30;79.00
56538;DHT22;42435;53.292;6.000;2023-07-13T04:26:02;17.40;79.00
56538;DHT22;42435;53.292;6.000;2023-07-13T04:28:28;17.40;79.00
56538;DHT22;42435;53.292;6.000;2023-07-13T04:30:54;17.40;79.00
56538;DHT22;42435;53.292;6.000;2023-07-13T04:33:20;17.40;79.00
56538;DHT22;42435;53.292;6.000;2023-07-13T04:35:53;17.40;79.10
56538;DHT22;42435;53.292;6.000;2023-07-13T04:38:23;17.40;79.20
56538;DHT22;42435;53.292;6.000;2023-07-13T04:40:50;17.40;79.20
56538;DHT22;42435;53.292;6.000;2023-07-13T04:43:17;17.40;79.20
56538;DHT22;42435;53.292;6.000;2023-07-13T04:45:42;17.50;79.20
56538;DHT22;42435;53.292;6.000;2023-07-13T04:48:08;17.50;79.20
56538;DHT22;42435;53.292;6.000;2023-07-13T04:50:36;17.60;79.20
56538;DHT22;42435;53.292;6.000;2023-07-13T04:53:02;17.60;79.20
56538;DHT22;42435;53.292;6.000;2023-07-13T04:55:30;17.70;79.10
56538;DHT22;42435;53.292;6.000;2023-07-13T04:57:57;17.70;79.10
56538;DHT22;42435;53.292;6.000;2023-07-13T05:00:25;17.70;79.10
56538;DHT22;42435;53.292;6.000;2023-07-13T05:02:55;17.80;79.20
56538;DHT22;42435;53.292;6.000;2023-07-13T05:05:24;17.80;79.20
56538;DHT22;42435;53.292;6.000;2023-07-13T05:07:50;17.90;79.10
56538;DHT22;42435;53.292;6.000;2023-07-13T05:10:16;17.90;79.00
56538;DHT22;42435;53.292;6.000;2023-07-13T05:12:41;17.90;79.00
56538;DHT22;42435;53.292;6.000;2023-07-13T05:15:08;18.00;79.00
56538;DHT22;42435;53.292;6.000;2023-07-13T05:17:35;18.00;79.00
56538;DHT22;42435;53.292;6.000;2023-07-13T05:20:01;18.10;79.00
56538;DHT22;42435;53.292;6.000;2023-07-13T05:22:30;18.10;79.00
56538;DHT22;42435;53.292;6.000;2023-07-13T05:24:55;18.20;78.90
56538;DHT22;42435;53.292;6.000;2023-07-13T05:27:21;18.30;78.80
56538;DHT22;42435;53.292;6.000;2023-07-13T05:29:47;18.30;78.70
56538;DHT22;42435;53.292;6.000;2023-07-13T05:32:13;18.40;78.50
56538;DHT22;42435;53.292;6.000;2023-07-13T05:34:39;18.50;78.20
56538;DHT22;42435;53.292;6.000;2023-07-13T05:37:04;18.50;77.80
56538;DHT22;42435;53.292;6.000;2023-07-13T05:39:30;18.60;77.20
56538;DHT22;42435;53.292;6.000;2023-07-13T05:41:56;18.70;76.80
56538;DHT22;42435;53.292;6.000;2023-07-13T05:44:22;18.80;76.30
56538;DHT22;42435;53.292;6.000;2023-07-13T05:46:47;18.90;75.60
56538;DHT22;42435;53.292;6.000;2023-07-13T05:49:13;18.90;74.90
56538;DHT22;42435;53.292;6.000;2023-07-13T05:51:39;18.90;74.30
56538;DHT22;42435;53.292;6.000;2023-07-13T05:56:37;19.00;73.10
56538;DHT22;42435;53.292;6.000;2023-07-13T05:59:03;19.10;72.70
56538;DHT22;42435;53.292;6.000;2023-07-13T06:01:30;19.20;72.40
56538;DHT22;42435;53.292;6.000;2023-07-13T06:03:56;19.20;72.10
56538;DHT22;42435;53.292;6.000;2023-07-13T06:06:29;19.40;71.80
56538;DHT22;42435;53.292;6.000;2023-07-13T06:08:57;19.60;71.10
56538;DHT22;42435;53.292;6.000;2023-07-13T06:11:25;20.10;70.20
56538;DHT22;42435;53.292;6.000;2023-07-13T06:13:51;20.60;68.50
56538;DHT22;42435;53.292;6.000;2023-07-13T06:16:18;20.90;67.60
56538;DHT22;42435;53.292;6.000;2023-07-13T06:18:45;21.00;66.90
56538;DHT22;42435;53.292;6.000;2023-07-13T06:21:15;21.00;66.60
56538;DHT22;42435;53.292;6.000;2023-07-13T06:23:41;20.90;66.40
56538;DHT22;42435;53.292;6.000;2023-07-13T06:26:07;20.90;66.50
56538;DHT22;42435;53.292;6.000;2023-07-13T06:28:37;20.90;66.20
56538;DHT22;42435;53.292;6.000;2023-07-13T06:31:05;21.10;65.60
56538;DHT22;42435;53.292;6.000;2023-07-13T06:33:31;21.20;65.20
56538;DHT22;42435;53.292;6.000;2023-07-13T06:36:01;21.40;64.50
56538;DHT22;42435;53.292;6.000;2023-07-13T06:38:27;21.60;63.70
56538;DHT22;42435;53.292;6.000;2023-07-13T06:40:54;21.90;62.30
56538;DHT22;42435;53.292;6.000;2023-07-13T06:43:20;22.00;61.70
56538;DHT22;42435;53.292;6.000;2023-07-13T06:45:47;22.20;60.80
56538;DHT22;42435;53.292;6.000;2023-07-13T06:48:18;22.40;59.80
56538;DHT22;42435;53.292;6.000;2023-07-13T06:50:44;22.40;59.60
56538;DHT22;42435;53.292;6.000;2023-07-13T06:53:11;22.40;58.90
56538;DHT22;42435;53.292;6.000;2023-07-13T06:55:37;22.40;58.50
56538;DHT22;42435;53.292;6.000;2023-07-13T06:58:03;22.40;58.70
56538;DHT22;42435;53.292;6.000;2023-07-13T07:00:29;22.40;58.70
56538;DHT22;42435;53.292;6.000;2023-07-13T07:02:57;22.60;58.20
56538;DHT22;42435;53.292;6.000;2023-07-13T07:05:22;22.70;57.20
56538;DHT22;42435;53.292;6.000;2023-07-13T07:07:54;22.80;57.10
56538;DHT22;42435;53.292;6.000;2023-07-13T07:10:20;23.00;56.70
56538;DHT22;42435;53.292;6.000;2023-07-13T07:12:46;23.10;56.60
56538;DHT22;42435;53.292;6.000;2023-07-13T07:15:12;23.30;56.70
56538;DHT22;42435;53.292;6.000;2023-07-13T07:17:38;23.40;56.40
56538;DHT22;42435;53.292;6.000;2023-07-13T07:20:05;23.40;55.80
56538;DHT22;42435;53.292;6.000;2023-07-13T07:22:31;23.30;55.60
56538;DHT22;42435;53.292;6.000;2023-07-13T07:24:57;23.30;55.50
56538;DHT22;42435;53.292;6.000;2023-07-13T07:27:24;23.30;55.70
56538;DHT22;42435;53.292;6.000;2023-07-13T07:29:50;23.30;55.70
56538;DHT22;42435;53.292;6.000;2023-07-13T07:32:16;23.40;55.90
56538;DHT22;42435;53.292;6.000;2023-07-13T07:34:41;23.40;55.60
56538;DHT22;42435;53.292;6.000;2023-07-13T07:37:11;23.50;55.40
56538;DHT22;42435;53.292;6.000;2023-07-13T07:39:38;23.40;55.00
56538;DHT22;42435;53.292;6.000;2023-07-13T07:42:04;23.40;54.80
56538;DHT22;42435;53.292;6.000;2023-07-13T07:44:31;23.30;54.80
56538;DHT22;42435;53.292;6.000;2023-07-13T07:46:57;23.20;55.00
56538;DHT22;42435;53.292;6.000;2023-07-13T07:49:25;23.20;55.20
56538;DHT22;42435;53.292;6.000;2023-07-13T07:51:51;23.20;55.20
56538;DHT22;42435;53.292;6.000;2023-07-13T07:54:17;23.20;54.60
56538;DHT22;42435;53.292;6.000;2023-07-13T07:56:43;23.30;54.70
56538;DHT22;42435;53.292;6.000;2023-07-13T07:59:09;23.20;54.50
56538;DHT22;42435;53.292;6.000;2023-07-13T08:01:35;23.20;54.80
56538;DHT22;42435;53.292;6.000;2023-07-13T08:04:01;23.10;54.70
56538;DHT22;42435;53.292;6.000;2023-07-13T08:06:27;23.10;54.70
56538;DHT22;42435;53.292;6.000;2023-07-13T08:08:53;23.00;55.00
56538;DHT22;42435;53.292;6.000;2023-07-13T08:11:21;23.00;55.40
56538;DHT22;42435;53.292;6.000;2023-07-13T08:13:47;23.10;55.70
56538;DHT22;42435;53.292;6.000;2023-07-13T08:16:12;23.30;55.60
56538;DHT22;42435;53.292;6.000;2023-07-13T08:18:40;23.40;55.10
56538;DHT22;42435;53.292;6.000;2023-07-13T08:21:07;23.50;55.00
56538;DHT22;42435;53.292;6.000;2023-07-13T08:23:33;23.70;54.70
56538;DHT22;42435;53.292;6.000;2023-07-13T08:25:59;23.70;54.40
56538;DHT22;42435;53.292;6.000;2023-07-13T08:28:29;23.80;54.30
56538;DHT22;42435;53.292;6.000;2023-07-13T08:30:55;23.90;54.10
56538;DHT22;42435;53.292;6.000;2023-07-13T08:33:22;23.80;54.40
56538;DHT22;42435;53.292;6.000;2023-07-13T08:35:51;23.80;54.90
56538;DHT22;42435;53.292;6.000;2023-07-13T08:38:18;23.80;55.20
56538;DHT22;42435;53.292;6.000;2023-07-13T08:40:45;23.70;55.10
56538;DHT22;42435;53.292;6.000;2023-07-13T08:43:23;23.70;55.30
56538;DHT22;42435;53.292;6.000;2023-07-13T08:45:55;23.70;55.60
56538;DHT22;42435;53.292;6.000;2023-07-13T08:48:31;23.80;54.60
56538;DHT22;42435;53.292;6.000;2023-07-13T08:50:58;23.90;53.60
56538;DHT22;42435;53.292;6.000;2023-07-13T08:53:34;24.20;53.90
56538;DHT22;42435;53.292;6.000;2023-07-13T08:56:02;24.30;53.10
56538;DHT22;42435;53.292;6.000;2023-07-13T08:58:30;24.40;52.20
56538;DHT22;42435;53.292;6.000;2023-07-13T09:01:02;24.40;52.20
56538;DHT22;42435;53.292;6.000;2023-07-13T09:03:37;24.40;52.10
56538;DHT22;42435;53.292;6.000;2023-07-13T09:06:07;24.50;51.60
56538;DHT22;42435;53.292;6.000;2023-07-13T09:16:39;24.40;51.50
56538;DHT22;42435;53.292;6.000;2023-07-13T09:19:08;24.60;51.80
56538;DHT22;42435;53.292;6.000;2023-07-13T09:21:41;24.70;50.80
56538;DHT22;42435;53.292;6.000;2023-07-13T09:27:19;24.90;49.00
56538;DHT22;42435;53.292;6.000;2023-07-13T09:29:50;25.10;49.30
56538;DHT22;42435;53.292;6.000;2023-07-13T09:32:21;25.40;48.20
56538;DHT22;42435;53.292;6.000;2023-07-13T09:34:54;25.50;48.10
56538;DHT22;42435;53.292;6.000;2023-07-13T09:37:29;25.60;47.80
56538;DHT22;42435;53.292;6.000;2023-07-13T09:39:56;25.70;48.00
56538;DHT22;42435;53.292;6.000;2023-07-13T09:42:22;25.90;48.10
56538;DHT22;42435;53.292;6.000;2023-07-13T09:45:00;26.00;48.10
56538;DHT22;42435;53.292;6.000;2023-07-13T09:47:33;26.30;47.10
56538;DHT22;42435;53.292;6.000;2023-07-13T09:50:06;26.40;46.30
56538;DHT22;42435;53.292;6.000;2023-07-13T09:52:47;26.40;46.20
56538;DHT22;42435;53.292;6.000;2023-07-13T09:55:34;26.50;45.40
56538;DHT22;42435;53.292;6.000;2023-07-13T10:00:38;26.40;45.60
56538;DHT22;42435;53.292;6.000;2023-07-13T10:03:18;26.40;45.90
56538;DHT22;42435;53.292;6.000;2023-07-13T10:05:48;26.30;46.00
56538;DHT22;42435;53.292;6.000;2023-07-13T10:08:19;26.10;46.40
56538;DHT22;42435;53.292;6.000;2023-07-13T10:10:46;26.00;46.40
56538;DHT22;42435;53.292;6.000;2023-07-13T10:13:36;26.00;46.40
56538;DHT22;42435;53.292;6.000;2023-07-13T10:16:04;26.10;46.50
56538;DHT22;42435;53.292;6.000;2023-07-13T10:18:45;26.20;46.70
56538;DHT22;42435;53.292;6.000;2023-07-13T10:21:20;26.40;47.30
56538;DHT22;42435;53.292;6.000;2023-07-13T10:23:56;26.50;46.70
56538;DHT22;42435;53.292;6.000;2023-07-13T10:26:33;26.60;46.80
56538;DHT22;42435;53.292;6.000;2023-07-13T10:29:05;26.80;46.50
56538;DHT22;42435;53.292;6.000;2023-07-13T10:31:38;26.90;45.70
56538;DHT22;42435;53.292;6.000;2023-07-13T10:34:04;26.80;45.20
56538;DHT22;42435;53.292;6.000;2023-07-13T10:36:40;26.70;44.40
56538;DHT22;42435;53.292;6.000;2023-07-13T10:39:26;26.60;44.70
56538;DHT22;42435;53.292;6.000;2023-07-13T10:41:59;26.60;45.80
56538;DHT22;42435;53.292;6.000;2023-07-13T10:44:30;26.60;45.40
56538;DHT22;42435;53.292;6.000;2023-07-13T10:47:03;26.60;45.50
56538;DHT22;42435;53.292;6.000;2023-07-13T10:49:32;26.50;45.90
56538;DHT22;42435;53.292;6.000;2023-07-13T10:52:00;26.20;46.40
56538;DHT22;42435;53.292;6.000;2023-07-13T10:54:34;25.90;47.40
56538;DHT22;42435;53.292;6.000;2023-07-13T10:57:15;25.60;48.70
56538;DHT22;42435;53.292;6.000;2023-07-13T10:59:47;25.60;49.40
56538;DHT22;42435;53.292;6.000;2023-07-13T11:02:21;25.70;49.00
56538;DHT22;42435;53.292;6.000;2023-07-13T11:04:48;25.70;47.60
56538;DHT22;42435;53.292;6.000;2023-07-13T11:07:29;25.50;48.70
56538;DHT22;42435;53.292;6.000;2023-07-13T11:10:03;25.40;50.30
56538;DHT22;42435;53.292;6.000;2023-07-13T11:12:53;25.10;50.90
56538;DHT22;42435;53.292;6.000;2023-07-13T11:15:44;24.90;51.90
56538;DHT22;42435;53.292;6.000;2023-07-13T11:18:22;24.70;52.00
56538;DHT22;42435;53.292;6.000;2023-07-13T11:20:49;24.50;52.10
56538;DHT22;42435;53.292;6.000;2023-07-13T11:25:42;24.20;52.70
56538;DHT22;42435;53.292;6.000;2023-07-13T11:30:43;24.00;53.20
56538;DHT22;42435;53.292;6.000;2023-07-13T11:36:06;24.20;51.80
56538;DHT22;42435;53.292;6.000;2023-07-13T11:38:42;24.40;51.50
56538;DHT22;42435;53.292;6.000;2023-07-13T11:41:29;24.30;53.10
56538;DHT22;42435;53.292;6.000;2023-07-13T11:44:06;24.10;55.00
56538;DHT22;42435;53.292;6.000;2023-07-13T11:46:33;23.90;56.20
56538;DHT22;42435;53.292;6.000;2023-07-13T11:49:05;23.70;56.90
56538;DHT22;42435;53.292;6.000;2023-07-13T11:51:35;23.50;56.80
56538;DHT22;42435;53.292;6.000;2023-07-13T11:54:43;23.40;56.40
56538;DHT22;42435;53.292;6.000;2023-07-13T11:57:24;23.20;56.60
56538;DHT22;42435;53.292;6.000;2023-07-13T11:59:52;23.00;57.40
56538;DHT22;42435;53.292;6.000;2023-07-13T12:02:51;22.70;57.70
56538;DHT22;42435;53.292;6.000;2023-07-13T12:05:18;22.50;58.70
56538;DHT22;42435;53.292;6.000;2023-07-13T12:07:46;22.40;59.30
56538;DHT22;42435;53.292;6.000;2023-07-13T12:10:22;22.40;59.80
56538;DHT22;42435;53.292;6.000;2023-07-13T12:12:53;22.40;60.70
56538;DHT22;42435;53.292;6.000;2023-07-13T12:15:20;22.60;60.30
56538;DHT22;42435;53.292;6.000;2023-07-13T12:17:48;22.70;59.90
56538;DHT22;42435;53.292;6.000;2023-07-13T12:20:28;22.90;59.00
56538;DHT22;42435;53.292;6.000;2023-07-13T12:22:58;22.90;58.20
56538;DHT22;42435;53.292;6.000;2023-07-13T12:25:24;23.10;57.80
56538;DHT22;42435;53.292;6.000;2023-07-13T12:27:51;23.30;56.50
56538;DHT22;42435;53.292;6.000;2023-07-13T12:30:30;23.40;55.50
56538;DHT22;42435;53.292;6.000;2023-07-13T12:33:16;23.60;54.20
56538;DHT22;42435;53.292;6.000;2023-07-13T12:35:48;23.90;53.30
56538;DHT22;42435;53.292;6.000;2023-07-13T12:38:16;24.00;52.90
56538;DHT22;42435;53.292;6.000;2023-07-13T12:40:42;24.30;52.20
56538;DHT22;42435;53.292;6.000;2023-07-13T12:43:12;24.40;51.40
56538;DHT22;42435;53.292;6.000;2023-07-13T12:48:29;24.70;50.30
56538;DHT22;42435;53.292;6.000;2023-07-13T12:50:56;24.70;50.50
56538;DHT22;42435;53.292;6.000;2023-07-13T12:53:27;24.80;50.90
56538;DHT22;42435;53.292;6.000;2023-07-13T12:55:57;24.80;50.60
56538;DHT22;42435;53.292;6.000;2023-07-13T12:58:30;24.90;50.20
56538;DHT22;42435;53.292;6.000;2023-07-13T13:00:59;24.90;49.50
56538;DHT22;42435;53.292;6.000;2023-07-13T13:03:33;25.10;49.30
56538;DHT22;42435;53.292;6.000;2023-07-13T13:06:01;25.30;48.90
56538;DHT22;42435;53.292;6.000;2023-07-13T13:08:29;25.40;49.00
56538;DHT22;42435;53.292;6.000;2023-07-13T13:10:55;25.50;48.80
56538;DHT22;42435;53.292;6.000;2023-07-13T13:13:21;25.60;48.20
56538;DHT22;42435;53.292;6.000;2023-07-13T13:15:47;25.80;48.60
56538;DHT22;42435;53.292;6.000;2023-07-13T13:18:25;26.00;49.40
56538;DHT22;42435;53.292;6.000;2023-07-13T13:20:51;26.10;49.60
56538;DHT22;42435;53.292;6.000;2023-07-13T13:23:19;26.00;50.00
56538;DHT22;42435;53.292;6.000;2023-07-13T13:25:48;26.10;50.20
56538;DHT22;42435;53.292;6.000;2023-07-13T13:28:19;26.20;49.80
56538;DHT22;42435;53.292;6.000;2023-07-13T13:30:46;26.00;49.60
56538;DHT22;42435;53.292;6.000;2023-07-13T13:33:15;25.80;49.70
56538;DHT22;42435;53.292;6.000;2023-07-13T13:35:42;25.50;49.40
56538;DHT22;42435;53.292;6.000;2023-07-13T13:38:14;25.30;50.00
56538;DHT22;42435;53.292;6.000;2023-07-13T13:40:42;25.20;50.90
56538;DHT22;42435;53.292;6.000;2023-07-13T13:43:18;25.20;51.20
56538;DHT22;42435;53.292;6.000;2023-07-13T13:45:46;25.20;51.20
56538;DHT22;42435;53.292;6.000;2023-07-13T13:48:20;25.30;50.90
56538;DHT22;42435;53.292;6.000;2023-07-13T13:50:48;25.10;50.40
56538;DHT22;42435;53.292;6.000;2023-07-13T13:53:14;24.90;50.60
56538;DHT22;42435;53.292;6.000;2023-07-13T13:55:41;24.70;51.40
56538;DHT22;42435;53.292;6.000;2023-07-13T13:58:11;24.50;52.30
56538;DHT22;42435;53.292;6.000;2023-07-13T14:00:37;24.40;52.80
56538;DHT22;42435;53.292;6.000;2023-07-13T14:03:04;24.40;52.80
56538;DHT22;42435;53.292;6.000;2023-07-13T14:05:31;24.50;53.10
56538;DHT22;42435;53.292;6.000;2023-07-13T14:07:57;24.80;52.60
56538;DHT22;42435;53.292;6.000;2023-07-13T14:10:23;24.90;51.70
56538;DHT22;42435;53.292;6.000;2023-07-13T14:12:53;25.00;51.70
56538;DHT22;42435;53.292;6.000;2023-07-13T14:15:27;25.10;52.20
56538;DHT22;42435;53.292;6.000;2023-07-13T14:17:54;25.20;52.50
56538;DHT22;42435;53.292;6.000;2023-07-13T14:20:22;25.50;52.50
56538;DHT22;42435;53.292;6.000;2023-07-13T14:22:52;25.70;51.40
56538;DHT22;42435;53.292;6.000;2023-07-13T14:25:20;25.80;50.80
56538;DHT22;42435;53.292;6.000;2023-07-13T14:27:51;25.80;50.80
56538;DHT22;42435;53.292;6.000;2023-07-13T14:30:21;25.80;50.60
56538;DHT22;42435;53.292;6.000;2023-07-13T14:32:48;25.80;50.40
56538;DHT22;42435;53.292;6.000;2023-07-13T14:35:16;25.80;50.60
56538;DHT22;42435;53.292;6.000;2023-07-13T14:37:42;25.90;50.60
56538;DHT22;42435;53.292;6.000;2023-07-13T14:42:39;25.90;50.50
56538;DHT22;42435;53.292;6.000;2023-07-13T14:45:05;25.80;50.50
56538;DHT22;42435;53.292;6.000;2023-07-13T14:47:31;25.80;51.00
56538;DHT22;42435;53.292;6.000;2023-07-13T14:49:57;25.90;51.00
56538;DHT22;42435;53.292;6.000;2023-07-13T14:52:23;25.90;50.30
56538;DHT22;42435;53.292;6.000;2023-07-13T14:54:50;26.00;50.10
56538;DHT22;42435;53.292;6.000;2023-07-13T14:57:17;25.90;49.70
56538;DHT22;42435;53.292;6.000;2023-07-13T14:59:47;25.80;49.70
56538;DHT22;42435;53.292;6.000;2023-07-13T15:02:18;25.70;50.10
56538;DHT22;42435;53.292;6.000;2023-07-13T15:04:44;25.70;49.90
56538;DHT22;42435;53.292;6.000;2023-07-13T15:07:11;25.60;50.40
56538;DHT22;42435;53.292;6.000;2023-07-13T15:09:38;25.70;50.00
56538;DHT22;42435;53.292;6.000;2023-07-13T15:12:05;25.70;49.70
56538;DHT22;42435;53.292;6.000;2023-07-13T15:14:31;25.70;49.40
56538;DHT22;42435;53.292;6.000;2023-07-13T15:16:57;25.60;49.70
56538;DHT22;42435;53.292;6.000;2023-07-13T15:19:25;25.50;50.30
56538;DHT22;42435;53.292;6.000;2023-07-13T15:21:53;25.50;50.10
56538;DHT22;42435;53.292;6.000;2023-07-13T15:24:20;25.60;49.40
56538;DHT22;42435;53.292;6.000;2023-07-13T15:26:47;25.60;49.40
56538;DHT22;42435;53.292;6.000;2023-07-13T15:29:15;25.60;49.00
56538;DHT22;42435;53.292;6.000;2023-07-13T15:31:41;25.60;48.40
56538;DHT22;42435;53.292;6.000;2023-07-13T15:34:12;25.50;48.60
56538;DHT22;42435;53.292;6.000;2023-07-13T15:36:39;25.50;49.40
56538;DHT22;42435;53.292;6.000;2023-07-13T15:39:06;25.40;49.60
56538;DHT22;42435;53.292;6.000;2023-07-13T15:41:32;25.40;49.70
56538;DHT22;42435;53.292;6.000;2023-07-13T15:43:59;25.30;50.20
56538;DHT22;42435;53.292;6.000;2023-07-13T15:46:27;25.30;49.80
56538;DHT22;42435;53.292;6.000;2023-07-13T15:48:54;25.20;50.00
56538;DHT22;42435;53.292;6.000;2023-07-13T15:51:26;25.10;50.00
56538;DHT22;42435;53.292;6.000;2023-07-13T15:53:59;25.00;49.80
56538;DHT22;42435;53.292;6.000;2023-07-13T15:56:31;24.90;49.90
56538;DHT22;42435;53.292;6.000;2023-07-13T15:58:59;24.80;50.40
56538;DHT22;42435;53.292;6.000;2023-07-13T16:01:26;24.70;50.80
56538;DHT22;42435;53.292;6.000;2023-07-13T16:03:55;24.70;51.20
56538;DHT22;42435;53.292;6.000;2023-07-13T16:06:29;24.50;51.60
56538;DHT22;42435;53.292;6.000;2023-07-13T16:08:56;24.40;51.90
56538;DHT22;42435;53.292;6.000;2023-07-13T16:11:28;24.30;52.20
56538;DHT22;42435;53.292;6.000;2023-07-13T16:13:58;24.20;52.50